Time;durP1;ratioP1;P1;durP2;ratioP2;P2;SDS_P1;SDS_P2;PMS_P1;PMS_P2;Temp;Humidity;BMP_temperature;BMP_pressure;BME280_temperature;BME280_humidity;BME280_pressure;Samples;Min_cycle;Max_cycle;Signal;HPM_P1;HPM_P2
2022/03/22 00:02:01;;;;;;;13.80;7.85;;;;;;;-0.63;58.30;101190.91;10333601;28;20038;-81
2022/03/22 00:07:02;;;;;;;17.88;8.13;;;;;;;-0.54;58.58;101203.53;10317665;28;20061;-83
2022/03/22 00:12:03;;;;;;;15.90;7.50;;;;;;;-0.47;58.59;101220.56;10334339;28;20133;-83
2022/03/22 00:17:04;;;;;;;20.45;8.15;;;;;;;-0.41;58.33;101219.41;10334005;28;20045;-83
2022/03/22 00:22:05;;;;;;;14.38;7.63;;;;;;;-0.62;58.62;101171.75;10333501;28;20061;-82
2022/03/22 00:27:06;;;;;;;14.30;7.97;;;;;;;-0.37;58.61;101207.91;10334674;28;20041;-83
2022/03/22 00:32:08;;;;;;;12.45;7.93;;;;;;;-0.44;58.49;101201.31;10333290;28;20046;-83
2022/03/22 00:37:09;;;;;;;13.43;7.22;;;;;;;-0.24;58.52;101234.22;10333480;28;20494;-83
2022/03/22 00:42:14;;;;;;;12.82;7.00;;;;;;;-0.87;59.85;101125.13;10333143;28;20096;-83
2022/03/22 00:47:14;;;;;;;19.00;7.85;;;;;;;-0.14;58.97;101239.84;10333218;28;20070;-80
2022/03/22 00:52:15;;;;;;;13.13;7.38;;;;;;;-0.14;59.29;101234.63;10332252;28;20426;-83
2022/03/22 00:57:18;;;;;;;15.98;7.60;;;;;;;-0.61;58.88;101162.97;10332767;28;20454;-83
2022/03/22 01:02:19;;;;;;;16.13;7.47;;;;;;;-0.67;58.97;101165.06;10333027;28;20701;-83
2022/03/22 01:07:20;;;;;;;12.73;7.53;;;;;;;-0.04;59.37;101254.97;10332550;28;20121;-82
2022/03/22 01:12:21;;;;;;;13.98;7.47;;;;;;;-0.48;59.18;101189.31;10332665;28;20042;-84
2022/03/22 01:17:22;;;;;;;18.35;7.93;;;;;;;0.00;59.49;101260.91;10331968;28;20042;-83
2022/03/22 01:22:23;;;;;;;15.15;8.30;;;;;;;0.12;59.08;101270.72;10332404;28;20132;-83
2022/03/22 01:27:23;;;;;;;15.80;7.47;;;;;;;0.20;59.50;101270.31;10331662;28;20121;-83
2022/03/22 01:32:24;;;;;;;13.27;7.65;;;;;;;-0.85;59.13;101085.94;10331791;28;20096;-83
2022/03/22 01:37:25;;;;;;;11.38;7.10;;;;;;;-0.75;59.76;101108.91;10331574;28;20073;-83
2022/03/22 01:42:26;;;;;;;14.27;7.32;;;;;;;-0.05;59.38;101223.72;10330916;28;20034;-83
2022/03/22 01:47:28;;;;;;;17.13;8.20;;;;;;;0.11;59.83;101278.63;10330939;28;20066;-83
2022/03/22 01:52:32;;;;;;;12.80;7.53;;;;;;;-0.33;59.56;101199.00;10331732;28;20042;-82
2022/03/22 01:57:36;;;;;;;12.45;7.00;;;;;;;-0.72;59.35;101120.91;10331705;28;20046;-83
2022/03/22 02:07:59;;;;;;;16.45;7.55;;;;;;;0.27;59.79;101284.78;10331061;28;20155;-83
2022/03/22 02:13:01;;;;;;;12.32;7.63;;;;;;;0.08;59.42;101260.50;10330531;28;20073;-83
2022/03/22 02:18:02;;;;;;;16.23;7.18;;;;;;;0.03;59.73;101247.69;10330477;28;20050;-83
2022/03/22 02:23:39;;;;;;;11.88;6.82;;;;;;;-0.14;60.36;101239.84;10330711;28;20034;-82
2022/03/22 02:28:42;;;;;;;10.13;6.50;;;;;;;-0.17;59.82;101229.56;10319044;28;20042;-83
2022/03/22 02:33:43;;;;;;;19.00;7.72;;;;;;;-0.61;59.90;101152.53;10330884;28;20049;-83
2022/03/22 02:38:44;;;;;;;25.27;8.10;;;;;;;-0.18;60.18;101215.66;10330396;28;20043;-84
2022/03/22 02:43:46;;;;;;;16.02;7.07;;;;;;;0.24;60.38;101290.16;10336584;28;20045;-82
2022/03/22 02:48:47;;;;;;;25.77;7.25;;;;;;;0.37;60.30;101306.06;10335993;28;20066;-83
2022/03/22 02:53:48;;;;;;;13.48;6.50;;;;;;;0.20;60.06;101273.78;10329285;28;20050;-82
2022/03/22 02:58:49;;;;;;;14.35;6.97;;;;;;;0.30;60.54;101284.63;10328884;28;20049;-81
2022/03/22 03:03:49;;;;;;;24.45;7.00;;;;;;;0.72;60.16;101364.38;10335205;28;20434;-83
2022/03/22 03:08:50;;;;;;;18.98;7.20;;;;;;;0.84;60.73;101382.03;10330117;28;20109;-80
2022/03/22 03:19:10;;;;;;;26.17;7.65;;;;;;;0.72;60.34;101392.28;10334359;28;20050;-82
2022/03/22 03:24:11;;;;;;;27.95;7.78;;;;;;;-0.24;60.26;101255.13;10324795;28;20065;-82
2022/03/22 03:29:12;;;;;;;20.75;8.20;;;;;;;0.18;60.84;101319.19;10325467;28;20042;-82
2022/03/22 03:34:13;;;;;;;16.25;7.75;;;;;;;-0.52;60.74;101204.28;10324829;28;20050;-82
2022/03/22 03:39:14;;;;;;;16.85;8.32;;;;;;;0.99;60.91;101444.94;10325452;28;20084;-82
2022/03/22 03:49:56;;;;;;;34.60;8.75;;;;;;;0.11;61.05;101315.22;10327332;28;20042;-83
2022/03/22 03:54:58;;;;;;;19.92;8.23;;;;;;;1.12;60.43;101472.16;10324466;28;20047;-82
2022/03/22 03:59:59;;;;;;;14.57;7.35;;;;;;;0.19;60.29;101316.50;10323653;28;20121;-83
2022/03/22 04:04:59;;;;;;;24.70;7.55;;;;;;;1.00;60.79;101460.56;10332777;28;20053;-81
2022/03/22 04:10:00;;;;;;;16.17;7.38;;;;;;;1.12;61.41;101459.09;10313368;28;20054;-83
2022/03/22 04:15:01;;;;;;;17.70;7.35;;;;;;;1.40;61.67;101496.91;10333955;28;20046;-81
2022/03/22 04:20:03;;;;;;;18.00;6.32;;;;;;;1.24;63.08;101462.84;10334192;28;20046;-79
2022/03/22 04:25:05;;;;;;;15.60;5.95;;;;;;;1.18;64.24;101478.88;10332057;28;20052;-74
2022/03/22 04:35:27;;;;;;;13.10;4.60;;;;;;;1.62;71.13;101523.66;10332653;28;20042;-82
2022/03/22 04:40:28;;;;;;;13.77;4.97;;;;;;;1.75;71.80;101536.94;10331164;28;20054;-85
2022/03/22 04:45:30;;;;;;;6.75;2.55;;;;;;;1.47;72.85;101488.66;10333083;28;20061;-85
2022/03/22 04:50:31;;;;;;;7.18;2.83;;;;;;;1.56;72.41;101506.50;10332329;28;20093;-83
2022/03/22 05:00:51;;;;;;;7.82;2.70;;;;;;;2.02;71.45;101590.47;10333076;28;20046;-85
2022/03/22 05:11:11;;;;;;;5.40;2.80;;;;;;;1.75;71.39;101548.25;10332041;28;20038;-83
2022/03/22 05:16:12;;;;;;;10.32;2.63;;;;;;;2.05;70.90;101613.06;10332055;28;20050;-84
2022/03/22 05:21:13;;;;;;;6.97;2.60;;;;;;;1.31;71.28;101499.06;10333369;28;20497;-85
2022/03/22 05:26:14;;;;;;;6.38;2.20;;;;;;;1.94;71.30;101625.88;10332782;28;20076;-84
2022/03/22 05:31:15;;;;;;;6.18;1.85;;;;;;;1.07;70.72;101466.31;10314214;28;20043;-84
2022/03/22 05:36:16;;;;;;;4.97;1.52;;;;;;;0.68;70.78;101408.13;10331673;28;20046;-83
2022/03/22 05:41:16;;;;;;;16.27;4.90;;;;;;;2.26;70.49;101661.72;10331601;28;20061;-83
2022/03/22 05:46:18;;;;;;;7.40;2.15;;;;;;;2.42;70.36;101685.38;10331130;28;20429;-85
2022/03/22 05:51:19;;;;;;;7.78;3.15;;;;;;;2.31;69.57;101663.28;10331406;28;20057;-84
2022/03/22 05:56:21;;;;;;;6.40;1.77;;;;;;;1.58;69.29;101550.91;10330695;28;20042;-85
2022/03/22 06:01:22;;;;;;;7.90;1.52;;;;;;;2.37;69.74;101712.78;10331192;28;20093;-83
2022/03/22 06:06:23;;;;;;;3.75;1.27;;;;;;;1.92;70.45;101667.91;10330593;28;20465;-82
2022/03/22 06:11:23;;;;;;;11.23;1.38;;;;;;;1.22;71.44;101554.50;10330823;28;20069;-81
2022/03/22 06:16:25;;;;;;;7.60;1.08;;;;;;;1.82;70.68;101664.94;10334814;28;20498;-83
2022/03/22 06:21:26;;;;;;;5.40;0.73;;;;;;;2.02;70.47;101707.59;10338527;28;20034;-83
2022/03/22 06:26:27;;;;;;;10.93;1.20;;;;;;;2.16;71.93;101752.28;10320991;28;20053;-82
2022/03/22 06:31:33;;;;;;;8.00;1.48;;;;;;;1.26;71.99;101618.06;10338225;28;20037;-81
2022/03/22 06:36:33;;;;;;;4.97;1.27;;;;;;;2.35;71.62;101761.81;10320767;28;20038;-84
2022/03/22 06:41:34;;;;;;;2.13;0.95;;;;;;;2.25;71.14;101732.63;10337817;28;20398;-82
2022/03/22 06:46:35;;;;;;;3.17;0.90;;;;;;;2.33;72.27;101779.41;10337841;28;20512;-83
2022/03/22 06:51:36;;;;;;;7.07;1.10;;;;;;;2.29;71.96;101776.09;10337397;28;20034;-82
2022/03/22 06:56:36;;;;;;;4.07;0.73;;;;;;;1.43;70.72;101617.19;10319939;28;20469;-83
2022/03/22 07:01:37;;;;;;;7.65;0.98;;;;;;;2.49;71.37;101788.19;10319485;28;20096;-82
2022/03/22 07:06:38;;;;;;;13.68;0.95;;;;;;;2.62;70.84;101806.72;10336416;28;20129;-82
2022/03/22 07:11:49;;;;;;;8.52;1.08;;;;;;;1.98;70.06;101645.78;10318799;28;20447;-82
2022/03/22 07:16:51;;;;;;;3.53;0.60;;;;;;;3.10;68.67;101797.16;10318547;28;20095;-82
2022/03/22 07:21:52;;;;;;;5.82;0.63;;;;;;;3.06;67.51;101767.59;10318762;28;20089;-82
2022/03/22 07:26:53;;;;;;;7.25;0.80;;;;;;;3.25;66.86;101772.66;10335813;28;20486;-82
2022/03/22 07:31:55;;;;;;;4.93;1.38;;;;;;;3.88;65.63;101827.75;10336472;28;20049;-82
2022/03/22 07:36:56;;;;;;;10.43;1.63;;;;;;;3.91;65.58;101823.25;10335737;28;20045;-84
2022/03/22 07:41:57;;;;;;;9.18;1.92;;;;;;;4.23;63.73;101795.91;10335246;28;20513;-82
2022/03/22 07:46:59;;;;;;;8.82;1.05;;;;;;;4.12;61.66;101709.75;10335515;28;20078;-83
2022/03/22 07:57:19;;;;;;;11.43;1.27;;;;;;;5.20;59.47;101713.56;10334853;28;20496;-82
2022/03/22 08:02:20;;;;;;;11.40;1.20;;;;;;;6.61;56.69;101828.97;10335351;28;20042;-81
2022/03/22 08:07:21;;;;;;;5.72;1.75;;;;;;;6.20;54.56;101677.91;10334740;28;20069;-81
2022/03/22 08:12:22;;;;;;;11.90;2.88;;;;;;;6.63;55.15;101781.31;10334777;28;20038;-82
2022/03/22 08:17:23;;;;;;;7.32;1.63;;;;;;;6.26;55.37;101804.16;10334646;28;20038;-82
2022/03/22 08:22:24;;;;;;;13.73;1.48;;;;;;;6.03;55.91;101789.84;10333798;28;20526;-81
2022/03/22 08:27:25;;;;;;;16.83;1.33;;;;;;;6.40;53.73;101817.22;10333790;28;20038;-81
2022/03/22 08:32:26;;;;;;;13.13;1.33;;;;;;;6.29;53.79;101793.38;10333216;28;20475;-80
2022/03/22 08:37:27;;;;;;;10.13;1.40;;;;;;;6.33;51.51;101687.47;10333620;28;20150;-81
2022/03/22 08:42:28;;;;;;;5.65;1.00;;;;;;;7.46;48.71;101825.63;10332647;28;20046;-80
2022/03/22 08:47:29;;;;;;;14.07;0.85;;;;;;;6.66;47.09;101693.97;10332993;28;20090;-80
2022/03/22 08:52:30;;;;;;;10.68;1.55;;;;;;;7.53;47.65;101830.34;10332333;28;20065;-80
2022/03/22 08:57:31;;;;;;;3.97;0.80;;;;;;;7.79;46.31;101758.81;10333688;28;20042;-80
2022/03/22 09:02:32;;;;;;;10.60;1.60;;;;;;;8.47;45.75;101827.84;10332071;28;20088;-81
2022/03/22 09:07:33;;;;;;;7.68;0.55;;;;;;;7.46;44.72;101696.91;10333746;28;20160;-81
2022/03/22 09:12:35;;;;;;;2.13;0.30;;;;;;;8.52;42.48;101807.97;10333119;28;20053;-79
2022/03/22 09:17:37;;;;;;;3.65;0.70;;;;;;;8.62;42.61;101793.06;10332369;28;20057;-81
2022/03/22 09:22:38;;;;;;;6.20;1.15;;;;;;;7.39;42.71;101693.06;10332058;28;20506;-82
2022/03/22 09:27:41;;;;;;;5.40;1.63;;;;;;;8.13;42.65;101841.78;10331819;28;20493;-82
2022/03/22 09:32:42;;;;;;;14.20;1.02;;;;;;;8.39;43.03;101831.09;10331369;28;20498;-82
2022/03/22 09:37:43;;;;;;;19.05;1.08;;;;;;;8.65;41.07;101840.53;10331708;28;20046;-82
2022/03/22 09:42:48;;;;;;;2.63;0.75;;;;;;;8.41;42.60;101850.34;10332516;28;20088;-82
2022/03/22 09:47:50;;;;;;;5.03;0.47;;;;;;;7.90;40.51;101721.00;10330839;28;20525;-82
2022/03/22 09:52:50;;;;;;;9.02;0.70;;;;;;;8.20;40.06;101835.09;10338798;28;20141;-82
2022/03/22 09:57:51;;;;;;;8.77;1.33;;;;;;;8.41;38.15;101815.94;10339737;28;20057;-86
2022/03/22 10:02:52;;;;;;;6.05;0.68;;;;;;;8.34;37.80;101746.66;10340263;28;20505;-83
2022/03/22 10:08:01;;;;;;;5.22;0.68;;;;;;;8.64;35.85;101700.22;10339169;28;20515;-85
2022/03/22 10:13:04;;;;;;;11.65;1.00;;;;;;;8.84;36.12;101695.97;10321618;28;20121;-83
2022/03/22 10:18:09;;;;;;;8.27;0.93;;;;;;;9.75;34.13;101819.38;10338562;28;20042;-82
2022/03/22 10:23:10;;;;;;;4.32;0.43;;;;;;;9.73;33.88;101747.88;10338675;28;20038;-83
2022/03/22 10:28:12;;;;;;;9.00;0.52;;;;;;;9.64;34.45;101740.69;10321192;28;20039;-82
2022/03/22 10:33:12;;;;;;;3.40;0.60;;;;;;;9.79;32.26;101786.34;10320942;28;20042;-83
2022/03/22 10:38:15;;;;;;;7.32;0.60;;;;;;;10.04;32.52;101806.34;10337920;28;20101;-84
2022/03/22 10:43:22;;;;;;;6.22;0.82;;;;;;;9.82;31.83;101804.66;10338070;28;20053;-85
2022/03/22 10:48:26;;;;;;;7.82;0.60;;;;;;;8.76;29.14;101653.34;10338134;28;20101;-84
2022/03/22 10:53:32;;;;;;;10.90;3.40;;;;;;;9.28;30.29;101800.25;10337796;28;20054;-80
2022/03/22 10:58:35;;;;;;;13.45;1.20;;;;;;;10.10;30.66;101802.34;10337637;28;20332;-81
2022/03/22 11:03:37;;;;;;;4.60;0.60;;;;;;;9.14;29.83;101679.41;10336513;28;20034;-82
2022/03/22 11:08:40;;;;;;;8.73;0.70;;;;;;;9.42;28.62;101754.03;10336419;28;20088;-81
2022/03/22 11:13:41;;;;;;;14.60;0.90;;;;;;;9.68;29.13;101767.81;10319578;28;20105;-82
2022/03/22 11:18:42;;;;;;;8.68;0.82;;;;;;;9.92;29.92;101805.56;10336627;28;20101;-81
2022/03/22 11:23:44;;;;;;;6.97;0.43;;;;;;;9.49;28.81;101688.91;10336539;28;20042;-82
2022/03/22 11:28:48;;;;;;;10.13;0.70;;;;;;;10.07;29.55;101785.69;10318972;28;20133;-83
2022/03/22 11:34:09;;;;;;;6.65;1.08;;;;;;;10.36;29.09;101802.84;10335492;28;20038;-83
2022/03/22 11:39:15;;;;;;;13.40;0.95;;;;;;;10.55;28.93;101804.75;10335041;28;20561;-82
2022/03/22 11:44:31;;;;;;;17.98;1.00;;;;;;;9.83;26.98;101758.56;10335473;28;20096;-84
2022/03/22 11:49:54;;;;;;;11.10;1.08;;;;;;;10.22;27.75;101814.59;10335482;28;20046;-83
2022/03/22 11:55:16;;;;;;;16.08;1.35;;;;;;;9.75;26.64;101776.91;10335099;28;20557;-83
2022/03/22 12:00:21;;;;;;;22.40;4.15;;;;;;;10.03;26.44;101824.09;10335487;28;20054;-82
2022/03/22 12:05:23;;;;;;;16.08;1.38;;;;;;;9.82;25.75;101788.72;10334256;28;20473;-83
2022/03/22 12:10:24;;;;;;;13.60;1.83;;;;;;;9.93;25.51;101786.03;10334028;28;20049;-82
2022/03/22 12:15:25;;;;;;;21.05;1.80;;;;;;;10.05;25.50;101806.25;10317020;28;20042;-83
2022/03/22 12:20:26;;;;;;;15.82;1.33;;;;;;;9.08;24.23;101671.94;10334019;28;20133;-82
2022/03/22 12:25:29;;;;;;;10.75;0.90;;;;;;;10.02;24.70;101853.41;10334036;28;20188;-82
2022/03/22 12:30:32;;;;;;;10.38;1.48;;;;;;;9.87;23.98;101826.34;10334458;28;20042;-81
2022/03/22 12:35:34;;;;;;;22.77;1.80;;;;;;;9.65;23.58;101819.31;10333729;28;20053;-82
2022/03/22 12:40:36;;;;;;;33.30;2.85;;;;;;;9.71;23.43;101841.84;10332953;28;20038;-75
2022/03/22 12:45:41;;;;;;;9.60;1.27;;;;;;;9.49;23.73;101787.88;10330554;28;20054;-75
2022/03/22 12:50:42;;;;;;;15.93;1.33;;;;;;;9.46;24.21;101827.94;10325191;28;20042;-73
2022/03/22 12:55:43;;;;;;;8.95;1.23;;;;;;;9.56;23.89;101852.72;10330293;28;20525;-74
2022/03/22 13:00:45;;;;;;;7.18;1.60;;;;;;;9.16;24.26;101833.06;10331896;28;20137;-74
2022/03/22 13:05:47;;;;;;;13.20;1.27;;;;;;;8.89;23.96;101832.47;10333042;28;20450;-74
2022/03/22 13:16:28;;;;;;;18.05;1.45;;;;;;;8.28;23.64;101763.03;10307341;28;20536;-73
2022/03/22 13:21:30;;;;;;;8.25;0.63;;;;;;;8.92;23.51;101879.09;10329053;28;20501;-76
2022/03/22 13:26:32;;;;;;;7.25;1.10;;;;;;;8.70;22.50;101882.53;10330675;28;20042;-73
2022/03/22 13:31:33;;;;;;;9.02;1.30;;;;;;;8.31;22.44;101823.69;10309187;28;20495;-73
2022/03/22 13:36:34;;;;;;;7.60;1.55;;;;;;;8.54;23.81;101882.03;10320859;28;20045;-73
2022/03/22 13:41:35;;;;;;;17.88;1.63;;;;;;;8.31;23.84;101899.63;10321672;28;20649;-73
2022/03/22 13:46:36;;;;;;;9.43;1.30;;;;;;;7.85;23.93;101840.38;10330682;28;20089;-79
2022/03/22 13:51:40;;;;;;;14.45;1.17;;;;;;;8.10;23.60;101902.06;10329800;28;20038;-80
2022/03/22 13:56:41;;;;;;;24.65;1.85;;;;;;;7.23;24.63;101764.69;10330884;28;20046;-79
2022/03/22 14:01:42;;;;;;;14.02;1.58;;;;;;;7.67;24.52;101879.59;10330584;28;20047;-80
2022/03/22 14:06:43;;;;;;;20.10;1.60;;;;;;;6.24;25.81;101652.97;10331296;28;20042;-80
2022/03/22 14:11:44;;;;;;;7.53;1.08;;;;;;;6.86;25.36;101788.47;10329623;28;20038;-80
2022/03/22 14:16:44;;;;;;;16.10;1.42;;;;;;;7.17;25.87;101868.22;10330585;28;20114;-81
2022/03/22 14:21:45;;;;;;;10.10;1.10;;;;;;;6.84;26.17;101842.38;10332007;28;20039;-80
2022/03/22 14:26:46;;;;;;;17.13;2.13;;;;;;;6.36;26.75;101808.69;10329422;28;20129;-79
2022/03/22 14:31:47;;;;;;;7.78;0.73;;;;;;;6.71;27.08;101884.63;10326533;28;20092;-80
2022/03/22 14:36:48;;;;;;;24.80;1.80;;;;;;;6.70;28.10;101913.78;10312745;28;20053;-79
2022/03/22 14:41:49;;;;;;;14.00;1.35;;;;;;;5.64;27.78;101770.44;10337715;28;20048;-79
2022/03/22 14:46:52;;;;;;;11.88;0.73;;;;;;;6.21;28.50;101902.06;10337753;28;20144;-79
2022/03/22 15:02:31;;;;;;;10.35;1.27;;;;;;;5.65;30.46;101904.81;10319383;28;20051;-77
2022/03/22 15:07:32;;;;;;;13.70;1.48;;;;;;;5.40;30.78;101910.75;10319530;28;20042;-78
2022/03/22 15:12:33;;;;;;;7.13;0.80;;;;;;;4.77;30.59;101851.44;10337564;28;20053;-79
2022/03/22 15:17:34;;;;;;;18.33;1.40;;;;;;;5.08;30.70;101962.78;10332645;28;20137;-79
2022/03/22 15:22:36;;;;;;;16.50;1.60;;;;;;;5.04;30.85;102004.28;10313806;28;20050;-80
2022/03/22 15:27:36;;;;;;;12.27;1.20;;;;;;;3.58;31.59;101793.56;10314238;28;20398;-79
2022/03/22 15:32:37;;;;;;;12.10;1.80;;;;;;;4.39;32.29;101964.22;10311412;28;20046;-79
2022/03/22 15:37:38;;;;;;;19.55;1.75;;;;;;;4.28;32.67;102000.84;10305076;28;20042;-77
2022/03/22 15:42:40;;;;;;;10.45;1.60;;;;;;;3.97;33.20;101986.75;10321914;28;20042;-80
2022/03/22 15:47:43;;;;;;;12.18;1.55;;;;;;;3.16;34.07;101891.34;10333284;28;20058;-79
2022/03/22 15:52:46;;;;;;;6.90;1.15;;;;;;;3.38;34.65;101969.84;10326117;28;20108;-79
2022/03/22 15:57:47;;;;;;;17.23;2.75;;;;;;;3.45;34.98;102018.50;10324530;28;20069;-80
2022/03/22 16:02:48;;;;;;;16.90;3.97;;;;;;;2.24;35.00;101843.66;10326436;28;20054;-80
2022/03/22 16:07:49;;;;;;;34.13;4.28;;;;;;;2.89;35.94;101978.50;10324943;28;20053;-79
2022/03/22 16:12:50;;;;;;;10.10;2.47;;;;;;;2.73;35.81;101986.31;10320390;28;20045;-78
2022/03/22 16:17:51;;;;;;;19.77;5.13;;;;;;;2.08;36.40;101895.16;10289495;28;20069;-79
2022/03/22 16:22:51;;;;;;;10.30;1.48;;;;;;;1.65;36.85;101861.41;10322202;28;20046;-78
2022/03/22 16:27:54;;;;;;;11.48;1.38;;;;;;;2.62;37.43;102042.88;10325446;28;20050;-77
2022/03/22 16:38:16;;;;;;;18.77;4.60;;;;;;;2.17;38.08;102021.41;10323418;28;20128;-81
2022/03/22 16:43:20;;;;;;;9.68;1.33;;;;;;;2.14;38.58;102046.91;10332930;28;20413;-82
2022/03/22 16:48:21;;;;;;;8.55;1.17;;;;;;;1.27;38.30;101913.78;10333823;28;20065;-83
2022/03/22 16:53:24;;;;;;;27.95;8.45;;;;;;;1.10;38.90;101911.91;10332653;28;20534;-82
2022/03/22 16:58:25;;;;;;;7.45;1.45;;;;;;;1.81;39.38;102048.38;10329654;28;20070;-77
2022/03/22 17:03:26;;;;;;;8.18;1.80;;;;;;;1.42;38.82;102008.28;10323144;28;20177;-77
2022/03/22 17:08:27;;;;;;;12.48;4.47;;;;;;;1.40;39.24;102015.34;10329441;28;20220;-81
2022/03/22 17:13:28;;;;;;;17.48;3.70;;;;;;;0.20;39.24;101819.09;10314511;28;20045;-81
2022/03/22 17:18:28;;;;;;;6.60;1.17;;;;;;;0.91;39.30;101948.53;10311362;28;20057;-81
2022/03/22 17:23:29;;;;;;;8.43;1.23;;;;;;;1.57;39.57;102059.97;10291448;28;20051;-80
2022/03/22 17:28:30;;;;;;;18.73;1.58;;;;;;;1.34;39.32;102038.25;10285420;28;20057;-80
2022/03/22 17:33:33;;;;;;;19.70;2.10;;;;;;;1.52;39.39;102072.41;10268696;28;20055;-80
2022/03/22 17:38:34;;;;;;;18.13;3.28;;;;;;;0.46;39.74;101922.56;10271551;28;20042;-80
2022/03/22 17:43:34;;;;;;;7.47;1.17;;;;;;;1.16;40.08;102067.00;10270658;28;20550;-81
2022/03/22 17:48:36;;;;;;;5.40;1.15;;;;;;;1.27;40.62;102075.25;10261920;28;20132;-80
2022/03/22 17:53:38;;;;;;;11.18;2.38;;;;;;;0.81;40.18;102010.00;10280651;28;20059;-80
2022/03/22 17:58:40;;;;;;;23.80;6.95;;;;;;;1.17;40.46;102084.41;10289626;28;20047;-81
2022/03/22 18:03:40;;;;;;;113.45;37.78;;;;;;;1.09;40.52;102079.50;10291233;28;20053;-81
2022/03/22 18:08:41;;;;;;;26.85;7.68;;;;;;;0.97;40.82;102080.03;10289805;28;20047;-81
2022/03/22 18:13:42;;;;;;;29.73;10.63;;;;;;;-0.07;42.13;101936.03;10296934;28;20779;-81
2022/03/22 18:18:43;;;;;;;7.97;1.80;;;;;;;0.00;42.14;101947.97;10297982;28;20034;-81
2022/03/22 18:23:44;;;;;;;19.48;6.22;;;;;;;0.26;42.39;101996.56;10297544;28;20503;-81
2022/03/22 18:28:45;;;;;;;11.45;1.98;;;;;;;0.49;42.42;102075.84;10298078;28;20041;-81
2022/03/22 18:33:45;;;;;;;5.57;1.95;;;;;;;0.47;43.07;102077.66;10295502;28;20149;-80
2022/03/22 18:38:47;;;;;;;6.07;2.22;;;;;;;0.54;43.47;102081.72;10297051;28;20248;-80
2022/03/22 18:43:48;;;;;;;14.00;2.38;;;;;;;0.44;43.21;102060.34;10297770;28;20047;-80
2022/03/22 18:48:49;;;;;;;13.38;4.28;;;;;;;0.48;43.32;102084.59;10282231;28;20051;-81
2022/03/22 18:53:50;;;;;;;16.33;5.68;;;;;;;0.33;43.18;102067.75;10267468;28;20546;-84
2022/03/22 18:58:51;;;;;;;8.18;1.33;;;;;;;-0.64;43.37;101930.38;10256894;29;20050;-84
2022/03/22 19:03:51;;;;;;;12.52;1.95;;;;;;;-1.06;44.20;101886.69;10257681;29;20051;-84
2022/03/22 19:08:52;;;;;;;10.55;1.10;;;;;;;-0.18;44.14;102050.53;10272412;28;20047;-85
2022/03/22 19:13:54;;;;;;;5.50;1.00;;;;;;;-0.46;44.62;102022.81;10255160;29;20054;-84
2022/03/22 19:18:56;;;;;;;8.35;2.53;;;;;;;-0.71;44.78;101981.97;10256395;29;20130;-83
2022/03/22 19:23:57;;;;;;;6.93;0.73;;;;;;;-0.45;45.42;102074.13;10255590;28;20047;-84
2022/03/22 19:28:58;;;;;;;7.88;1.00;;;;;;;-0.55;46.25;102047.50;10275964;28;20039;-86
2022/03/22 19:33:59;;;;;;;7.03;1.67;;;;;;;-0.61;45.76;102052.94;10291654;28;20043;-87
2022/03/22 19:39:00;;;;;;;3.10;1.02;;;;;;;-0.47;46.53;102057.69;10295964;28;20038;-85
2022/03/22 19:44:01;;;;;;;8.40;1.55;;;;;;;-1.48;46.31;101879.50;10295813;28;20042;-85
2022/03/22 19:49:02;;;;;;;7.70;1.75;;;;;;;-1.47;46.52;101893.38;10296960;28;20422;-85
2022/03/22 19:54:03;;;;;;;3.28;0.80;;;;;;;-1.55;46.57;101892.81;10294167;28;20129;-86
2022/03/22 19:59:06;;;;;;;12.35;1.17;;;;;;;-1.09;46.67;101972.03;10295375;28;20538;-85
2022/03/22 20:04:07;;;;;;;6.93;1.38;;;;;;;-1.66;47.28;101882.72;10293430;28;20458;-85
2022/03/22 20:09:12;;;;;;;7.70;1.55;;;;;;;-0.78;47.45;102037.00;10295226;28;20125;-85
2022/03/22 20:14:13;;;;;;;17.73;5.20;;;;;;;-1.14;47.72;102008.69;10295180;28;20105;-86
2022/03/22 20:19:13;;;;;;;14.70;4.55;;;;;;;-1.66;48.15;101932.22;10287454;28;20098;-85
2022/03/22 20:24:14;;;;;;;9.38;3.00;;;;;;;-1.85;48.04;101908.53;10256908;28;20043;-86
2022/03/22 20:29:15;;;;;;;11.73;3.85;;;;;;;-1.27;50.10;102026.50;10254548;28;20185;-86
2022/03/22 20:34:16;;;;;;;10.95;4.75;;;;;;;-1.15;49.75;102059.16;10254696;28;20377;-86
2022/03/22 20:39:17;;;;;;;115.95;35.80;;;;;;;-1.66;51.01;101979.13;10253798;29;20051;-86
2022/03/22 20:44:18;;;;;;;37.03;15.02;;;;;;;-1.69;50.57;101987.06;10253430;29;20423;-81
2022/03/22 20:49:19;;;;;;;96.25;33.35;;;;;;;-1.42;51.46;102037.44;10252408;29;20049;-80
2022/03/22 20:54:19;;;;;;;240.25;70.68;;;;;;;-1.28;51.60;102045.66;10253359;28;20134;-80
2022/03/22 20:59:21;;;;;;;101.43;31.05;;;;;;;-2.29;51.55;101876.97;10251456;29;20050;-80
2022/03/22 21:04:22;;;;;;;21.10;9.35;;;;;;;-1.52;51.71;102004.75;10256919;28;20102;-80
2022/03/22 21:09:23;;;;;;;34.80;11.75;;;;;;;-1.69;52.29;101959.22;10268109;28;20047;-80
2022/03/22 21:14:24;;;;;;;20.05;9.20;;;;;;;-1.31;52.69;102048.38;10267238;28;20038;-80
2022/03/22 21:19:26;;;;;;;17.90;9.57;;;;;;;-1.51;53.57;102024.69;10251330;29;20411;-80
2022/03/22 21:24:27;;;;;;;18.42;9.43;;;;;;;-2.26;53.35;101889.03;10252113;29;20090;-80
2022/03/22 21:29:27;;;;;;;18.15;10.13;;;;;;;-1.38;54.17;102029.47;10251489;29;20110;-79
2022/03/22 21:34:30;;;;;;;18.13;9.40;;;;;;;-1.42;54.39;102027.84;10251348;29;20063;-79
2022/03/22 21:39:30;;;;;;;15.90;6.95;;;;;;;-1.49;54.83;102021.16;10252126;29;20131;-80
2022/03/22 21:44:32;;;;;;;14.20;7.05;;;;;;;-2.09;54.97;101912.78;10251970;28;20138;-80
2022/03/22 21:49:33;;;;;;;12.38;6.50;;;;;;;-1.57;56.29;102012.72;10275296;28;20487;-79
2022/03/22 21:54:34;;;;;;;15.43;7.45;;;;;;;-1.46;55.44;102049.72;10258773;29;20127;-80
2022/03/22 21:59:35;;;;;;;15.25;7.38;;;;;;;-1.59;55.90;102047.53;10259488;29;20587;-80
2022/03/22 22:04:36;;;;;;;17.23;8.80;;;;;;;-1.91;57.25;102010.31;10259211;28;20036;-80
2022/03/22 22:09:36;;;;;;;14.85;8.77;;;;;;;-1.93;56.88;102001.69;10258373;29;20058;-80
2022/03/22 22:14:37;;;;;;;16.10;8.70;;;;;;;-1.72;57.96;102036.66;10281085;28;20117;-80
2022/03/22 22:19:38;;;;;;;21.25;8.45;;;;;;;-2.26;58.37;101949.75;10257860;28;20055;-80
2022/03/22 22:24:40;;;;;;;14.00;8.40;;;;;;;-2.72;57.60;101890.41;10257411;29;20047;-80
2022/03/22 22:29:41;;;;;;;16.48;8.55;;;;;;;-2.88;57.55;101909.06;10258276;29;20435;-80
2022/03/22 22:34:42;;;;;;;17.80;7.80;;;;;;;-2.33;57.29;102032.38;10258921;28;20043;-80
2022/03/22 22:39:43;;;;;;;18.20;7.63;;;;;;;-2.98;57.51;101944.03;10257965;29;20043;-79
2022/03/22 22:44:44;;;;;;;16.88;6.88;;;;;;;-2.96;58.09;101973.44;10257459;29;20059;-80
2022/03/22 22:49:45;;;;;;;14.82;8.13;;;;;;;-2.68;58.45;102029.91;10256491;28;20511;-80
2022/03/22 22:54:45;;;;;;;17.23;8.43;;;;;;;-4.52;58.63;101717.78;10257037;29;20066;-81
2022/03/22 22:59:46;;;;;;;28.15;11.25;;;;;;;-3.41;58.78;101946.88;10256975;28;20171;-81
2022/03/22 23:04:47;;;;;;;37.55;11.13;;;;;;;-3.02;58.98;102021.25;10256852;29;20082;-80
2022/03/22 23:15:08;;;;;;;22.10;10.70;;;;;;;-3.31;58.89;102006.41;10255673;29;20051;-81
2022/03/22 23:20:11;;;;;;;23.88;10.13;;;;;;;-4.51;59.12;101825.84;10256601;29;20094;-81
2022/03/22 23:25:12;;;;;;;17.00;7.55;;;;;;;-3.89;59.28;101950.66;10255846;29;20503;-81
2022/03/22 23:30:12;;;;;;;15.93;7.00;;;;;;;-3.85;59.01;101988.66;10256369;29;20129;-80
2022/03/22 23:35:13;;;;;;;18.00;6.70;;;;;;;-4.11;58.96;101970.22;10255512;29;20065;-80
2022/03/22 23:40:14;;;;;;;13.32;7.40;;;;;;;-4.28;59.82;101949.81;10254561;29;20039;-80
2022/03/22 23:45:15;;;;;;;19.73;7.60;;;;;;;-5.12;59.56;101813.31;10255751;29;20127;-80
2022/03/22 23:50:16;;;;;;;22.88;7.13;;;;;;;-4.46;59.19;101930.31;10254773;29;20051;-79
2022/03/22 23:55:17;;;;;;;16.30;6.80;;;;;;;-4.94;59.39;101850.94;10256188;29;20408;-80
